Time;durP1;ratioP1;P1;durP2;ratioP2;P2;SDS_P1;SDS_P2;PMS_P1;PMS_P2;Temp;Humidity;BMP_temperature;BMP_pressure;BME280_temperature;BME280_humidity;BME280_pressure;Samples;Min_cycle;Max_cycle;Signal;HPM_P1;HPM_P2
2022/11/25 00:01:12;;;;;;;;;;;8.30;90.90;;;8.77;58.25;98623.28;4952151;28;114841;-76
2022/11/25 00:03:40;;;;;;;;;;;8.30;90.90;;;8.75;58.07;98625.50;4944050;28;113819;-77
2022/11/25 00:06:12;;;;;;;;;;;8.30;91.00;;;8.77;58.09;98626.84;4947917;28;124865;-76
2022/11/25 00:08:39;;;;;;;;;;;8.30;91.00;;;8.74;58.31;98627.44;4946969;28;124099;-76
2022/11/25 00:11:06;;;;;;;;;;;8.60;91.20;;;8.72;58.33;98624.19;4947905;28;115282;-76
2022/11/25 00:13:33;;;;;;;;;;;8.20;91.10;;;8.71;58.52;98622.56;4940497;28;114522;-77
2022/11/25 00:16:03;;;;;;;;;;;8.20;91.10;;;8.70;58.55;98614.59;4968504;28;123705;-76
2022/11/25 00:18:30;;;;;;;;;;;8.20;91.20;;;8.69;58.30;98615.72;4954408;28;124147;-77
2022/11/25 00:20:57;;;;;;;;;;;8.20;91.20;;;8.70;58.53;98612.63;4951552;28;114638;-76
2022/11/25 00:23:24;;;;;;;;;;;8.20;91.20;;;8.72;58.78;98613.16;4949701;28;114014;-76
2022/11/25 00:25:50;;;;;;;;;;;8.20;91.30;;;8.74;58.72;98604.59;4950752;28;124059;-76
2022/11/25 00:28:17;;;;;;;;;;;8.30;91.30;;;8.74;58.66;98616.44;4940300;28;124527;-76
2022/11/25 00:30:44;;;;;;;;;;;8.20;91.30;;;8.76;58.78;98622.47;4944644;28;113857;-76
2022/11/25 00:33:10;;;;;;;;;;;8.20;91.30;;;8.75;58.59;98615.28;4953549;28;113880;-76
2022/11/25 00:35:36;;;;;;;;;;;8.30;91.30;;;8.74;58.57;98613.69;4951074;28;124197;-76
2022/11/25 00:38:03;;;;;;;;;;;8.20;91.30;;;8.72;58.53;98618.66;4953062;28;124139;-76
2022/11/25 00:40:29;;;;;;;;;;;8.20;91.30;;;8.73;58.71;98614.81;4952521;28;114393;-76
2022/11/25 00:45:41;;;;;;;;;;;8.30;91.60;;;8.72;58.37;98613.16;4954451;28;125445;-76
2022/11/25 00:48:07;;;;;;;;;;;8.20;91.30;;;8.72;58.79;98610.41;4949326;28;123156;-76
2022/11/25 00:50:33;;;;;;;;;;;8.20;91.40;;;8.72;58.81;98618.66;4952130;28;114996;-76
2022/11/25 00:52:59;;;;;;;;;;;8.30;91.40;;;8.73;58.87;98619.47;4954000;28;113745;-77
2022/11/25 00:56:11;;;;;;;;;;;8.20;91.40;;;8.71;58.89;98616.22;4945936;28;124302;-76
2022/11/25 00:58:12;;;;;;;;;;;8.20;91.40;;;8.69;59.11;98615.72;4943617;28;123749;-76
2022/11/25 01:00:38;;;;;;;;;;;8.20;91.50;;;8.68;59.31;98616.81;4951109;28;115581;-76
2022/11/25 01:03:04;;;;;;;;;;;8.10;91.60;;;8.68;59.28;98622.31;4941492;28;115191;-76
2022/11/25 01:05:31;;;;;;;;;;;8.20;91.70;;;8.68;59.32;98620.41;4954211;28;124007;-77
2022/11/25 01:07:57;;;;;;;;;;;8.20;91.70;;;8.70;59.26;98631.91;4949102;28;124191;-74
2022/11/25 01:10:23;;;;;;;;;;;8.20;91.70;;;8.73;59.18;98633.25;4950058;28;114039;-76
2022/11/25 01:12:50;;;;;;;;;;;8.20;91.80;;;8.72;59.34;98635.19;4941221;28;113603;-75
2022/11/25 01:15:16;;;;;;;;;;;8.20;91.70;;;8.70;59.31;98637.44;4941614;28;124201;-75
2022/11/25 01:17:42;;;;;;;;;;;8.20;91.70;;;8.70;59.40;98631.91;4938898;28;124086;-74
2022/11/25 01:20:11;;;;;;;;;;;8.20;91.80;;;8.69;59.28;98633.06;4941410;28;115096;-75
2022/11/25 01:22:37;;;;;;;;;;;8.20;91.70;;;8.70;59.38;98631.91;4955216;28;113589;-75
2022/11/25 01:25:04;;;;;;;;;;;8.20;91.70;;;8.72;59.43;98623.38;4949385;28;124282;-75
2022/11/25 01:27:30;;;;;;;;;;;8.30;91.80;;;8.76;59.55;98618.91;4952752;28;122952;-76
2022/11/25 01:29:56;;;;;;;;;;;8.20;91.80;;;8.79;59.53;98615.53;4948975;28;113931;-75
2022/11/25 01:32:22;;;;;;;;;;;8.30;91.80;;;8.81;59.22;98621.53;4948303;28;113398;-75
2022/11/25 01:34:49;;;;;;;;;;;8.30;91.80;;;8.81;59.28;98616.84;4946808;28;124157;-75
2022/11/25 01:37:15;;;;;;;;;;;8.30;91.80;;;8.81;59.37;98611.34;4949358;28;122908;-75
2022/11/25 01:39:41;;;;;;;;;;;8.30;91.80;;;8.83;59.15;98622.84;4940907;28;114425;-75
2022/11/25 01:42:08;;;;;;;;;;;8.30;91.70;;;8.84;59.23;98620.94;4950216;28;113873;-75
2022/11/25 01:44:35;;;;;;;;;;;7.60;91.40;;;8.82;59.09;98625.94;4946987;28;124528;-75
2022/11/25 01:47:10;;;;;;;;;;;8.40;91.70;;;8.80;58.92;98620.72;4941487;28;124202;-75
2022/11/25 01:49:40;;;;;;;;;;;8.30;91.60;;;8.77;59.08;98621.31;4950382;28;115233;-76
2022/11/25 01:52:20;;;;;;;;;;;8.30;91.60;;;8.78;59.03;98611.94;4950653;28;114864;-75
2022/11/25 01:55:00;;;;;;;;;;;8.30;91.60;;;8.76;59.03;98614.19;4937847;28;124100;-74
2022/11/25 01:57:33;;;;;;;;;;;8.30;91.60;;;8.75;59.04;98609.78;4947323;28;123770;-76
2022/11/25 02:00:01;;;;;;;;;;;8.30;91.60;;;8.75;59.13;98625.50;4952920;28;114507;-75
2022/11/25 02:02:32;;;;;;;;;;;8.30;91.80;;;8.74;58.88;98624.69;4955833;28;113517;-77
2022/11/25 02:05:00;;;;;;;;;;;8.30;91.60;;;8.75;59.02;98618.06;4955345;28;124386;-77
2022/11/25 02:07:34;;;;;;;;;;;8.30;91.60;;;8.75;58.64;98623.56;4935306;28;121894;-76
2022/11/25 02:10:08;;;;;;;;;;;8.20;91.50;;;8.72;58.88;98629.69;4959287;28;114397;-77
2022/11/25 02:12:36;;;;;;;;;;;8.30;91.50;;;8.71;58.92;98630.00;4951480;28;114506;-76
2022/11/25 02:15:07;;;;;;;;;;;8.30;91.50;;;8.68;58.90;98628.69;4955729;28;123483;-76
2022/11/25 02:17:35;;;;;;;;;;;8.20;91.50;;;8.66;58.95;98630.91;4961639;28;123693;-77
2022/11/25 02:20:08;;;;;;;;;;;8.20;91.50;;;8.63;58.92;98626.81;4943381;28;113857;-78
2022/11/25 02:22:40;;;;;;;;;;;8.20;91.50;;;8.58;59.03;98628.84;4965908;28;112579;-76
2022/11/25 02:25:15;;;;;;;;;;;8.10;91.50;;;8.55;59.09;98632.22;4957600;28;123420;-76
2022/11/25 02:27:43;;;;;;;;;;;8.10;91.60;;;8.52;59.18;98632.84;4956614;28;123274;-76
2022/11/25 02:30:09;;;;;;;;;;;8.10;91.60;;;8.50;59.07;98632.31;4955355;28;114727;-76
2022/11/25 02:32:42;;;;;;;;;;;8.10;91.60;;;8.47;59.38;98633.72;4958561;28;113211;-76
2022/11/25 02:35:38;;;;;;;;;;;8.00;91.60;;;8.42;59.31;98622.00;4957667;28;123751;-76
2022/11/25 02:38:06;;;;;;;;;;;8.00;91.70;;;8.35;59.30;98619.59;4931028;28;124137;-75
2022/11/25 02:40:43;;;;;;;;;;;7.90;91.70;;;8.36;59.34;98621.25;4952416;28;115526;-76
2022/11/25 02:43:09;;;;;;;;;;;7.90;91.70;;;8.33;59.60;98617.16;4943238;28;114639;-76
2022/11/25 02:45:44;;;;;;;;;;;7.90;91.80;;;8.33;59.73;98617.16;4954856;28;124225;-76
2022/11/25 02:48:10;;;;;;;;;;;7.80;91.80;;;8.29;59.49;98605.09;4934699;28;124044;-76
2022/11/25 02:50:37;;;;;;;;;;;7.80;91.80;;;8.25;59.50;98611.50;4948961;28;113740;-76
2022/11/25 02:53:03;;;;;;;;;;;7.80;91.80;;;8.21;59.69;98619.56;4952767;28;113113;-77
2022/11/25 02:55:31;;;;;;;;;;;7.70;91.80;;;8.19;59.72;98621.78;4950972;28;124423;-76
2022/11/25 02:57:57;;;;;;;;;;;7.70;91.90;;;8.15;59.93;98618.84;4935333;28;124374;-76
2022/11/25 03:00:23;;;;;;;;;;;7.70;91.90;;;8.12;59.71;98616.69;4952841;28;114127;-75
2022/11/25 03:02:52;;;;;;;;;;;7.70;92.00;;;8.12;59.75;98613.13;4952269;28;113293;-75
2022/11/25 03:05:19;;;;;;;;;;;7.60;92.00;;;8.09;59.96;98608.22;4955282;28;124249;-75
2022/11/25 03:07:45;;;;;;;;;;;7.60;92.00;;;8.08;60.01;98606.56;4944452;28;124047;-76
2022/11/25 03:10:12;;;;;;;;;;;7.60;92.10;;;8.03;60.09;98601.97;4953841;28;114523;-76
2022/11/25 03:12:38;;;;;;;;;;;7.50;92.10;;;8.00;60.15;98607.25;4952351;28;113778;-76
2022/11/25 03:15:05;;;;;;;;;;;7.50;92.10;;;7.95;60.41;98609.00;4947691;28;124835;-76
2022/11/25 03:17:32;;;;;;;;;;;7.40;92.10;;;7.95;60.26;98613.66;4950027;28;123499;-76
2022/11/25 03:19:58;;;;;;;;;;;7.50;92.20;;;7.96;60.49;98613.38;4948896;28;114650;-74
2022/11/25 03:22:24;;;;;;;;;;;7.50;92.20;;;7.99;60.32;98611.13;4947888;28;113839;-75
2022/11/25 03:24:51;;;;;;;;;;;7.50;92.30;;;7.90;60.46;98602.75;4952444;28;124250;-76
2022/11/25 03:27:17;;;;;;;;;;;7.40;92.30;;;7.85;60.60;98598.16;4953482;28;123104;-76
2022/11/25 03:29:43;;;;;;;;;;;7.40;92.40;;;7.84;60.50;98598.44;4948975;28;115243;-76
2022/11/25 03:32:09;;;;;;;;;;;7.30;92.40;;;7.86;60.70;98597.03;4945179;28;114293;-76
2022/11/25 03:34:36;;;;;;;;;;;7.40;92.40;;;7.89;60.68;98595.59;4954584;28;124105;-76
2022/11/25 03:37:02;;;;;;;;;;;7.40;92.40;;;7.91;60.98;98601.63;4953802;28;123950;-75
2022/11/25 03:39:28;;;;;;;;;;;7.40;92.40;;;7.94;60.58;98601.84;4943604;28;114903;-76
2022/11/25 03:41:54;;;;;;;;;;;7.50;92.40;;;7.96;60.54;98602.34;4950382;28;114006;-76
2022/11/25 03:44:21;;;;;;;;;;;7.50;92.50;;;8.00;60.60;98602.56;4952881;28;124069;-75
2022/11/25 03:46:47;;;;;;;;;;;7.50;92.50;;;8.02;60.45;98594.84;4944798;28;123553;-76
2022/11/25 03:49:13;;;;;;;;;;;7.50;92.40;;;8.05;60.64;98604.44;4953299;28;113318;-76
2022/11/25 03:51:40;;;;;;;;;;;7.50;92.40;;;8.05;60.81;98594.22;4953097;28;112909;-76
2022/11/25 03:54:06;;;;;;;;;;;7.60;92.50;;;8.06;60.60;98592.28;4953610;28;125116;-75
2022/11/25 03:56:32;;;;;;;;;;;7.50;92.40;;;8.06;60.49;98600.53;4944513;28;124076;-75
2022/11/25 03:58:58;;;;;;;;;;;7.60;92.40;;;8.06;60.36;98603.28;4950854;28;114073;-75
2022/11/25 04:01:25;;;;;;;;;;;7.60;92.40;;;8.04;60.33;98600.88;4950041;28;113711;-75
2022/11/25 04:03:51;;;;;;;;;;;7.60;92.40;;;8.04;60.53;98602.81;4936713;28;125842;-75
2022/11/25 04:06:19;;;;;;;;;;;7.60;92.40;;;8.04;60.66;98597.31;4937492;28;123609;-74
2022/11/25 04:08:45;;;;;;;;;;;7.60;92.40;;;8.02;60.36;98600.34;4950614;28;114310;-76
2022/11/25 04:11:11;;;;;;;;;;;9.20;93.00;;;8.01;60.58;98606.16;4948426;28;113541;-75
2022/11/25 04:13:38;;;;;;;;;;;7.50;92.30;;;7.99;60.72;98600.13;4952032;28;123758;-75
2022/11/25 04:16:05;;;;;;;;;;;7.50;92.30;;;7.94;60.52;98598.28;4945935;28;124024;-75
2022/11/25 04:18:50;;;;;;;;;;;7.50;92.30;;;7.92;60.42;98598.56;4935857;28;115960;-76
2022/11/25 04:21:16;;;;;;;;;;;7.50;92.40;;;7.89;60.66;98595.59;4952205;28;114515;-76
2022/11/25 04:23:43;;;;;;;;;;;7.50;92.40;;;7.89;60.73;98599.16;4959681;28;124490;-78
2022/11/25 04:26:11;;;;;;;;;;;7.40;92.40;;;7.90;60.53;98589.81;4959659;28;123239;-76
2022/11/25 04:28:37;;;;;;;;;;;7.40;92.40;;;7.88;60.54;98597.53;4959290;28;114618;-78
2022/11/25 04:31:07;;;;;;;;;;;7.40;92.40;;;7.91;60.83;98594.19;4959558;28;114235;-76
2022/11/25 04:33:33;;;;;;;;;;;7.40;92.40;;;7.90;60.61;98589.81;4958811;28;123615;-76
2022/11/25 04:36:00;;;;;;;;;;;7.40;92.40;;;7.91;60.59;98588.69;4960125;28;124376;-76
2022/11/25 04:38:26;;;;;;;;;;;7.40;92.40;;;7.92;60.83;98587.56;4960829;28;115686;-77
2022/11/25 04:40:52;;;;;;;;;;;7.40;92.40;;;7.91;60.46;98587.88;4964550;28;113510;-76
2022/11/25 04:43:19;;;;;;;;;;;7.50;92.40;;;7.90;60.57;98580.75;4966610;28;123893;-75
2022/11/25 04:45:46;;;;;;;;;;;7.40;92.40;;;7.88;60.42;98586.53;4947354;28;124188;-75
2022/11/25 04:48:13;;;;;;;;;;;7.40;92.40;;;7.84;60.80;98576.44;4945046;28;114167;-74
2022/11/25 04:50:39;;;;;;;;;;;7.40;92.40;;;7.82;60.55;98590.50;4954201;28;113136;-75
2022/11/25 04:53:05;;;;;;;;;;;7.40;92.50;;;7.77;60.47;98593.31;4945437;28;124370;-75
2022/11/25 04:55:32;;;;;;;;;;;7.30;92.50;;;7.71;60.66;98589.00;4948962;28;124599;-75
2022/11/25 04:57:58;;;;;;;;;;;7.20;92.50;;;7.66;60.73;98591.84;4952882;28;115053;-75
2022/11/25 05:00:24;;;;;;;;;;;7.20;92.50;;;7.63;60.90;98593.28;4951008;28;113523;-75
2022/11/25 05:02:51;;;;;;;;;;;7.20;92.60;;;7.63;61.19;98597.94;4951323;28;124114;-75
2022/11/25 05:05:17;;;;;;;;;;;7.10;92.60;;;7.61;61.11;98597.44;4953083;28;123942;-75
2022/11/25 05:07:44;;;;;;;;;;;7.10;92.60;;;7.59;61.00;98607.91;4948830;28;114170;-74
2022/11/25 05:10:10;;;;;;;;;;;7.10;92.60;;;7.61;61.40;98605.69;4953350;28;114519;-76
2022/11/25 05:12:36;;;;;;;;;;;7.10;92.60;;;7.61;61.26;98606.50;4950744;28;123116;-74
2022/11/25 05:15:04;;;;;;;;;;;7.10;92.60;;;7.65;61.03;98601.19;4941986;28;124579;-75
2022/11/25 05:17:31;;;;;;;;;;;7.10;92.70;;;7.69;61.34;98602.25;4945693;28;114349;-75
2022/11/25 05:19:58;;;;;;;;;;;7.20;92.70;;;7.71;60.92;98595.34;4946367;28;111835;-76
2022/11/25 05:22:27;;;;;;;;;;;7.20;92.70;;;7.73;60.91;98597.78;4950966;28;124573;-77
2022/11/25 05:24:54;;;;;;;;;;;7.20;92.70;;;7.73;61.02;98597.78;4952486;28;124294;-76
2022/11/25 05:27:21;;;;;;;;;;;7.20;92.70;;;7.73;61.11;98597.78;4950807;28;114447;-76
2022/11/25 05:29:48;;;;;;;;;;;7.20;92.70;;;7.72;61.13;98596.16;4950664;28;113527;-78
2022/11/25 05:32:15;;;;;;;;;;;7.20;92.70;;;7.73;60.94;98600.53;4942762;28;123347;-75
2022/11/25 05:34:42;;;;;;;;;;;7.20;92.70;;;7.71;60.86;98597.25;4946177;28;124867;-76
2022/11/25 05:37:10;;;;;;;;;;;7.60;92.90;;;7.72;60.94;98598.91;4936129;28;114100;-75
2022/11/25 05:39:36;;;;;;;;;;;7.20;92.70;;;7.73;61.04;98592.28;4945676;28;113464;-76
2022/11/25 05:42:03;;;;;;;;;;;7.20;92.70;;;7.74;61.14;98608.50;4944942;28;124270;-76
2022/11/25 05:44:29;;;;;;;;;;;7.30;92.80;;;7.74;61.09;98610.44;4946159;28;123961;-76
2022/11/25 05:46:55;;;;;;;;;;;7.20;92.70;;;7.77;61.09;98609.00;4945693;28;113435;-76
2022/11/25 05:49:22;;;;;;;;;;;7.30;92.80;;;7.77;61.09;98620.81;4952481;28;113671;-77
2022/11/25 05:51:48;;;;;;;;;;;7.30;92.80;;;7.78;60.97;98611.44;4944633;28;123975;-76
2022/11/25 05:54:14;;;;;;;;;;;7.30;92.80;;;7.78;61.42;98622.44;4939183;28;124057;-76
2022/11/25 05:56:41;;;;;;;;;;;7.30;92.80;;;7.79;60.97;98617.75;4948876;28;115129;-77
2022/11/25 05:59:07;;;;;;;;;;;7.30;92.80;;;7.79;61.33;98624.09;4948703;28;116259;-76
2022/11/25 06:01:33;;;;;;;;;;;7.30;92.80;;;7.80;61.10;98630.41;4941820;28;124965;-76
2022/11/25 06:04:01;;;;;;;;;;;7.30;92.80;;;7.81;61.04;98632.84;4955375;28;123911;-76
2022/11/25 06:06:27;;;;;;;;;;;7.30;92.90;;;7.84;61.45;98634.19;4946814;28;114432;-76
2022/11/25 06:08:53;;;;;;;;;;;7.30;92.90;;;7.85;61.47;98639.41;4952058;28;113899;-76
2022/11/25 06:11:19;;;;;;;;;;;7.40;93.00;;;7.85;61.52;98636.66;4948793;28;124059;-76
2022/11/25 06:13:46;;;;;;;;;;;7.30;92.90;;;7.85;61.44;98639.41;4943143;28;124023;-76
2022/11/25 06:16:15;;;;;;;;;;;7.30;92.90;;;7.84;61.21;98643.25;4947836;28;114570;-76
2022/11/25 06:18:42;;;;;;;;;;;7.30;92.90;;;7.83;61.01;98649.88;4949794;28;114209;-76
2022/11/25 06:21:09;;;;;;;;;;;7.30;92.80;;;7.83;61.18;98644.38;4932818;28;123557;-75
2022/11/25 06:23:36;;;;;;;;;;;7.30;92.80;;;7.81;61.67;98645.78;4929770;28;121929;-76
2022/11/25 06:26:07;;;;;;;;;;;7.30;93.00;;;7.86;62.17;98646.53;4947693;28;113621;-76
2022/11/25 06:28:35;;;;;;;;;;;7.30;93.20;;;7.91;61.94;98651.94;4930565;28;113808;-76
2022/11/25 06:31:06;;;;;;;;;;;7.40;93.40;;;7.99;62.28;98655.16;4926998;28;124904;-77
2022/11/25 06:33:33;;;;;;;;;;;7.40;93.60;;;8.05;62.37;98653.94;4946707;28;123798;-75
2022/11/25 06:36:02;;;;;;;;;;;7.40;93.70;;;8.10;63.10;98651.13;4946611;28;115128;-75
2022/11/25 06:38:29;;;;;;;;;;;7.50;93.90;;;8.20;62.90;98664.72;4936255;28;114122;-79
2022/11/25 06:41:00;;;;;;;;;;;7.50;94.10;;;8.21;62.27;98663.59;4946765;28;123126;-78
2022/11/25 06:43:27;;;;;;;;;;;7.60;93.80;;;8.16;61.81;98661.72;4949392;28;123846;-78
2022/11/25 06:45:53;;;;;;;;;;;7.50;93.90;;;8.13;61.81;98667.84;4941602;28;116304;-78
2022/11/25 06:48:20;;;;;;;;;;;7.60;93.50;;;8.09;61.54;98666.00;4949809;28;114106;-79
2022/11/25 06:50:55;;;;;;;;;;;7.50;93.30;;;8.09;61.40;98668.75;4950611;28;124075;-81
2022/11/25 06:53:21;;;;;;;;;;;7.50;93.30;;;8.07;61.08;98668.22;4942765;28;123931;-80
2022/11/25 06:55:48;;;;;;;;;;;7.50;93.20;;;8.05;60.99;98671.28;4949909;28;114581;-79
2022/11/25 06:58:14;;;;;;;;;;;7.50;93.40;;;8.05;61.14;98670.47;4951991;28;113776;-79
2022/11/25 07:00:40;;;;;;;;;;;7.50;93.00;;;8.02;60.95;98676.56;4949290;28;124196;-78
2022/11/25 07:03:06;;;;;;;;;;;7.50;92.90;;;8.00;60.95;98674.09;4952579;28;123785;-79
2022/11/25 07:05:33;;;;;;;;;;;7.50;92.90;;;8.00;60.77;98681.53;4953552;28;113586;-79
2022/11/25 07:07:59;;;;;;;;;;;7.50;92.90;;;7.99;61.17;98686.22;4950219;28;113526;-79
2022/11/25 07:10:25;;;;;;;;;;;7.50;92.80;;;7.99;60.92;98688.16;4933699;28;123617;-80
2022/11/25 07:12:51;;;;;;;;;;;7.50;92.80;;;7.99;60.74;98690.91;4951319;28;122740;-80
2022/11/25 07:15:18;;;;;;;;;;;7.50;92.80;;;8.01;60.81;98691.44;4951325;28;114642;-79
2022/11/25 07:17:44;;;;;;;;;;;7.50;92.80;;;8.02;60.76;98687.56;4950942;28;113746;-82
2022/11/25 07:20:10;;;;;;;;;;;7.50;92.80;;;8.04;60.80;98696.34;4948750;28;124267;-79
2022/11/25 07:22:37;;;;;;;;;;;7.50;92.80;;;8.04;60.71;98685.34;4937825;28;123789;-72
2022/11/25 07:25:03;;;;;;;;;;;7.50;92.80;;;8.13;62.06;98687.09;4933173;28;115094;-72
2022/11/25 07:27:29;;;;;;;;;;;7.50;93.50;;;8.31;63.43;98695.66;4946619;28;112639;-72
2022/11/25 07:29:56;;;;;;;;;;;7.70;94.40;;;8.52;63.99;98682.41;4935809;28;124011;-72
2022/11/25 07:32:22;;;;;;;;;;;7.80;94.90;;;8.70;64.20;98675.19;4950108;28;123168;-73
2022/11/25 07:34:49;;;;;;;;;;;7.90;95.20;;;8.88;64.65;98685.31;4948925;28;117496;-72
2022/11/25 07:37:16;;;;;;;;;;;8.10;95.50;;;9.04;64.67;98688.59;4950866;28;114880;-72
2022/11/25 07:39:43;;;;;;;;;;;8.20;95.60;;;9.23;64.92;98699.53;4952687;28;124479;-72
2022/11/25 07:42:09;;;;;;;;;;;8.30;96.00;;;9.42;65.33;98696.66;4946669;28;124194;-71
2022/11/25 07:44:35;;;;;;;;;;;8.50;96.20;;;9.58;64.46;98697.97;4949475;28;114320;-71
2022/11/25 07:47:02;;;;;;;;;;;8.70;96.10;;;9.64;63.26;98698.69;4949212;28;113451;-72
2022/11/25 07:49:29;;;;;;;;;;;8.70;95.60;;;9.60;62.37;98704.00;4951143;28;124267;-79
2022/11/25 07:51:58;;;;;;;;;;;8.70;94.90;;;9.52;61.80;98701.97;4940684;28;124123;-79
2022/11/25 07:54:25;;;;;;;;;;;8.70;94.40;;;9.46;61.22;98712.28;4947984;28;115104;-78
2022/11/25 07:56:52;;;;;;;;;;;8.70;94.10;;;9.44;60.91;98716.47;4954652;28;113893;-76
2022/11/25 07:59:20;;;;;;;;;;;8.70;93.80;;;9.41;60.31;98717.09;4949685;28;124341;-76
2022/11/25 08:01:51;;;;;;;;;;;8.80;93.70;;;9.40;60.06;98721.81;4948469;28;123765;-76
2022/11/25 08:04:18;;;;;;;;;;;8.70;93.40;;;9.38;59.93;98729.56;4948285;28;115451;-78
2022/11/25 08:06:45;;;;;;;;;;;8.70;93.20;;;9.37;59.66;98724.34;4946504;28;112828;-76
2022/11/25 08:09:14;;;;;;;;;;;8.70;93.10;;;9.36;59.48;98731.00;4948635;28;123990;-77
2022/11/25 08:11:41;;;;;;;;;;;8.70;92.90;;;9.34;59.52;98730.47;4940951;28;124555;-75
2022/11/25 08:14:09;;;;;;;;;;;8.70;92.80;;;9.32;59.52;98740.97;4933738;28;114502;-77
2022/11/25 08:16:36;;;;;;;;;;;8.70;92.80;;;9.32;59.27;98729.94;4949076;28;113922;-77
2022/11/25 08:19:04;;;;;;;;;;;8.70;92.70;;;9.31;58.74;98731.91;4950093;28;123298;-77
2022/11/25 08:21:30;;;;;;;;;;;8.70;92.60;;;9.32;59.21;98735.47;4947967;28;124168;-76
2022/11/25 08:23:57;;;;;;;;;;;8.70;92.60;;;9.32;59.05;98729.94;4947162;28;115248;-78
2022/11/25 08:26:26;;;;;;;;;;;8.70;92.50;;;9.31;59.08;98723.63;4946827;28;114720;-78
2022/11/25 08:28:53;;;;;;;;;;;8.70;92.50;;;9.33;59.45;98715.06;4951470;28;124467;-78
2022/11/25 08:31:24;;;;;;;;;;;8.70;92.50;;;9.36;59.22;98708.94;4949477;28;124505;-80
2022/11/25 08:33:53;;;;;;;;;;;8.80;92.60;;;9.40;59.21;98709.94;4950676;28;114634;-77
2022/11/25 08:36:20;;;;;;;;;;;8.80;92.70;;;9.46;59.68;98720.56;4943749;28;114105;-78
2022/11/25 08:38:49;;;;;;;;;;;8.80;92.80;;;9.52;59.78;98719.31;4946508;28;124266;-79
2022/11/25 08:41:22;;;;;;;;;;;8.90;92.90;;;9.55;59.57;98733.63;4951538;28;124539;-79
2022/11/25 08:43:49;;;;;;;;;;;8.90;92.70;;;9.55;59.34;98723.41;4946727;28;115448;-80
2022/11/25 08:46:23;;;;;;;;;;;8.90;92.70;;;9.60;59.18;98725.25;4947326;28;113483;-76
2022/11/25 08:48:52;;;;;;;;;;;9.00;92.70;;;9.63;59.32;98719.94;4932139;28;124647;-77
2022/11/25 08:51:21;;;;;;;;;;;9.00;92.70;;;9.66;59.24;98724.03;4952629;28;124107;-78
2022/11/25 08:53:50;;;;;;;;;;;9.10;92.60;;;9.71;59.33;98721.97;4935597;28;113465;-78
2022/11/25 08:56:18;;;;;;;;;;;9.10;92.60;;;9.74;59.17;98715.00;4958428;28;113972;-78
2022/11/25 08:58:44;;;;;;;;;;;9.10;92.60;;;9.77;59.19;98717.16;4945984;28;123454;-77
2022/11/25 09:01:11;;;;;;;;;;;9.20;92.50;;;9.78;58.90;98723.47;4950808;28;123951;-76
2022/11/25 09:03:40;;;;;;;;;;;9.20;92.50;;;9.79;58.62;98723.19;4954102;28;113610;-80
2022/11/25 09:06:07;;;;;;;;;;;9.20;92.40;;;9.82;58.78;98727.28;4949079;28;113086;-78
2022/11/25 09:08:34;;;;;;;;;;;9.20;92.70;;;9.83;58.82;98734.41;4937321;28;124501;-78
2022/11/25 09:11:00;;;;;;;;;;;9.30;92.40;;;9.88;58.69;98728.78;4947661;28;123939;-78
2022/11/25 09:13:26;;;;;;;;;;;9.30;92.40;;;9.92;58.96;98740.84;4952517;28;115258;-82
2022/11/25 09:15:53;;;;;;;;;;;9.30;92.40;;;9.94;58.69;98735.84;4954777;28;114452;-81
2022/11/25 09:18:19;;;;;;;;;;;9.30;92.30;;;9.97;58.92;98746.25;4959161;28;124602;-78
2022/11/25 09:20:46;;;;;;;;;;;9.40;92.40;;;10.03;58.75;98739.50;4949456;28;123342;-78
2022/11/25 09:23:13;;;;;;;;;;;9.40;92.40;;;10.10;58.79;98750.94;4944637;28;114091;-77
2022/11/25 09:25:39;;;;;;;;;;;9.50;92.40;;;10.18;58.55;98754.88;4951019;28;113880;-78
2022/11/25 09:28:05;;;;;;;;;;;9.60;92.40;;;10.24;58.32;98755.59;4953437;28;123486;-78
2022/11/25 09:30:33;;;;;;;;;;;9.60;92.30;;;10.29;58.50;98763.78;4952106;28;123885;-78
2022/11/25 09:32:59;;;;;;;;;;;9.70;92.30;;;10.34;58.38;98755.38;4949386;28;114614;-76
2022/11/25 09:35:26;;;;;;;;;;;9.70;92.30;;;10.39;58.36;98753.31;4944813;28;113672;-77
2022/11/25 09:37:52;;;;;;;;;;;9.80;92.30;;;10.45;57.91;98756.78;4944989;28;124119;-77
2022/11/25 09:40:28;;;;;;;;;;;9.80;92.20;;;10.49;58.00;98757.78;4950417;28;123230;-77
2022/11/25 09:49:26;;;;;;;;;;;9.90;92.20;;;10.61;58.25;98757.22;4888793;28;124635;-77
2022/11/25 09:52:34;;;;;;;;;;;10.00;91.80;;;10.65;58.11;98754.66;4900094;28;123425;-77
2022/11/25 09:55:15;;;;;;;;;;;10.10;91.80;;;10.66;58.22;98759.84;4871898;28;114001;-77
2022/11/25 09:58:40;;;;;;;;;;;10.10;91.80;;;10.68;58.17;98754.84;4877166;28;113282;-78
2022/11/25 10:01:13;;;;;;;;;;;10.10;91.80;;;10.67;58.11;98757.94;4815351;29;123935;-78
2022/11/25 10:03:58;;;;;;;;;;;10.10;91.80;;;10.65;58.46;98749.13;4853044;28;126595;-77
2022/11/25 10:06:28;;;;;;;;;;;10.10;91.80;;;10.64;58.86;98750.25;4839856;28;114544;-79
2022/11/25 10:09:00;;;;;;;;;;;10.10;91.80;;;10.66;58.25;98750.75;4835025;29;114644;-79
2022/11/25 10:11:26;;;;;;;;;;;10.10;91.90;;;10.66;58.12;98750.75;4832530;28;125333;-77
2022/11/25 10:14:33;;;;;;;;;;;10.10;91.90;;;10.63;58.37;98756.91;4850128;29;123219;-78
2022/11/25 10:17:06;;;;;;;;;;;10.10;91.80;;;10.65;58.31;98754.66;4851155;28;114728;-76
2022/11/25 10:19:53;;;;;;;;;;;10.10;91.90;;;10.71;58.26;98764.44;4855056;28;114156;-77
2022/11/25 10:22:26;;;;;;;;;;;10.10;91.90;;;10.76;58.21;98767.09;4867953;28;124217;-78
2022/11/25 10:24:55;;;;;;;;;;;10.20;91.90;;;10.82;58.60;98768.59;4870242;28;124018;-77
2022/11/25 10:27:39;;;;;;;;;;;10.20;91.90;;;10.90;58.56;98761.47;4872223;28;114289;-78
2022/11/25 10:30:32;;;;;;;;;;;10.30;92.00;;;10.97;57.87;98762.66;4859216;28;113692;-78
2022/11/25 10:33:13;;;;;;;;;;;10.40;92.00;;;11.00;57.84;98762.03;4872781;28;123975;-76
2022/11/25 10:35:42;;;;;;;;;;;10.40;91.90;;;11.04;58.15;98759.44;4870268;28;125096;-78
2022/11/25 10:38:19;;;;;;;;;;;10.40;91.90;;;11.10;58.11;98760.16;4935557;28;114910;-77
2022/11/25 10:40:47;;;;;;;;;;;10.40;91.90;;;11.18;57.84;98756.63;4952837;28;113106;-79
2022/11/25 10:43:14;;;;;;;;;;;10.50;91.90;;;11.23;57.61;98760.06;4960345;28;124478;-77
2022/11/25 10:45:51;;;;;;;;;;;10.60;91.80;;;11.31;57.50;98758.47;4938966;28;124493;-78
2022/11/25 10:48:38;;;;;;;;;;;10.60;91.80;;;11.36;57.51;98758.31;4959073;28;113751;-75
2022/11/25 10:51:25;;;;;;;;;;;10.70;91.80;;;11.40;57.87;98764.03;4961236;28;113524;-76
2022/11/25 10:54:09;;;;;;;;;;;10.70;91.70;;;11.42;57.39;98759.00;4950784;28;124413;-77
2022/11/25 10:56:59;;;;;;;;;;;10.80;91.70;;;11.41;57.20;98760.13;4950348;28;124306;-77
2022/11/25 10:59:27;;;;;;;;;;;10.80;91.60;;;11.40;57.70;98761.28;4942059;28;114471;-77
2022/11/25 11:02:10;;;;;;;;;;;10.80;91.60;;;11.40;57.76;98764.84;4946779;28;114111;-77
2022/11/25 11:05:08;;;;;;;;;;;10.80;91.70;;;11.41;57.51;98771.19;4951636;28;124333;-77
2022/11/25 11:07:37;;;;;;;;;;;10.80;91.60;;;11.35;57.80;98766.94;4939185;28;125712;-78
2022/11/25 11:10:24;;;;;;;;;;;10.80;91.70;;;11.32;57.67;98779.47;4949583;28;114311;-78
2022/11/25 11:13:05;;;;;;;;;;;10.80;91.70;;;11.25;58.04;98779.09;4951160;28;113585;-77
2022/11/25 11:15:43;;;;;;;;;;;10.70;91.70;;;11.17;58.02;98779.84;4948031;28;124172;-78
2022/11/25 11:18:26;;;;;;;;;;;10.60;91.70;;;11.15;58.38;98782.13;4951414;28;123990;-78
2022/11/25 11:20:54;;;;;;;;;;;10.60;91.70;;;11.11;58.02;98783.91;4949537;28;115002;-78
2022/11/25 11:23:21;;;;;;;;;;;10.60;91.70;;;11.12;57.92;98791.03;4948411;28;113940;-78
2022/11/25 11:26:09;;;;;;;;;;;10.60;91.70;;;11.13;57.84;98792.69;4935620;28;124405;-78
2022/11/25 11:28:35;;;;;;;;;;;10.60;91.70;;;11.12;58.32;98805.69;4947234;28;123803;-76
2022/11/25 11:31:14;;;;;;;;;;;10.60;91.70;;;11.16;58.11;98803.13;4948686;28;114622;-77
2022/11/25 11:33:47;;;;;;;;;;;10.60;91.70;;;11.17;57.95;98800.03;4949168;28;113978;-76
2022/11/25 11:36:25;;;;;;;;;;;10.60;91.70;;;11.20;58.14;98815.16;4948345;28;126021;-76
2022/11/25 11:39:05;;;;;;;;;;;10.70;91.80;;;11.21;58.18;98823.16;4948212;28;123838;-76
2022/11/25 11:41:53;;;;;;;;;;;10.70;91.90;;;11.19;58.29;98825.41;4949084;28;114649;-76